Millet, Canada
Current Conditions -  °F | °C
As of 1:00 AM on Saturday 20 Dec 2014 (Local Time) from CYEG Reporting Station
Broken Clouds Broken Clouds  
Wind Chill: 19°   Ceiling: 15000
Heat Index: 19°   Visibility: 15mi
Dew Point: 16°   Wind: 0mph
Humidity: 86%   Direction: NA
Pressure: 29.68"   Gusts: NA
Location:  53.08°N, 113.47°W
Report Text: CYEG 200800Z 00000KT 15SM FEW120 BKN150 BKN230 M07/M09 A2968 RMK AC1AC4CI2 SLP092
Loading
Personal Weather Stations






























Interactive Weather Map New forecast layout! Learn more

10-Day Weather Forecast

Advertisements
Track Severe Weather on mobile